Flight Track Log - Related Links

Times and Time Zones

All times are in EDT time to prevent confusion due to time zone crossing. See the N678H flight status page for this flight to view local times or setup timezone preferences in your user account.

Time Position Orientation Groundspeed Altitude Reporting Facility
EDT Latitude Longitude Course Direction KTS MPH feet Rate Location/Type
Mon 03:06:33 PM 33.7594 -93.6447 350° North 134 154 2,700  Level Memphis Center
Mon 03:07:48 PM 33.8042 -93.6542 350° North 158 182 4,000 1,032 Climbing Fort Worth Center
Mon 03:09:39 PM 33.8619 -93.6628 353° North 123 142 5,900 1,006 Climbing Memphis Center
Mon 03:10:41 PM 33.8950 -93.6672 354° North 120 138 6,900 1,065 Climbing Memphis Center
Mon 03:11:43 PM 33.9369 -93.6717 355° North 123 142 8,100 1,056 Climbing Memphis Center
Mon 03:12:46 PM 33.9700 -93.6783 351° North 122 140 9,100 960 Climbing Memphis Center
Mon 03:13:48 PM 34.0042 -93.6847 351° North 122 140 10,100 919 Climbing Memphis Center
Mon 03:14:50 PM 34.0367 -93.6925 349° North 121 139 11,000 871 Climbing Memphis Center
Mon 03:15:52 PM 34.0692 -93.6975 353° North 120 138 11,900 919 Climbing Memphis Center
Mon 03:16:54 PM 34.1000 -93.7019 353° North 116 133 12,900 1,016 Climbing Memphis Center
Mon 03:17:56 PM 34.1347 -93.7100 349° North 110 127 14,000 968 Climbing Memphis Center
Mon 03:18:58 PM 34.1653 -93.7175 349° North 110 127 14,900 823 Climbing Memphis Center
Mon 03:20:00 PM 34.1967 -93.7231 352° North 112 129 15,700 532 Climbing Memphis Center
Mon 03:21:02 PM 34.2325 -93.7300 351° North 120 138 16,000 145 Climbing Memphis Center
Mon 03:22:04 PM 34.2758 -93.7381 351° North 140 161 16,000  Level Memphis Center
Mon 03:23:06 PM 34.3233 -93.7481 350° North 161 185 16,000  Level Memphis Center
Mon 03:24:08 PM 34.3817 -93.7583 352° North 171 197 16,000  Level Memphis Center
Mon 03:25:10 PM 34.4281 -93.7672 351° North 171 197 16,000  Level Memphis Center
Mon 03:26:12 PM 34.4750 -93.7750 352° North 171 197 16,000  Level Memphis Center
Mon 03:27:14 PM 34.5206 -93.7856 349° North 168 193 16,000  Level Memphis Center
Mon 03:28:16 PM 34.5669 -93.7947 351° North 168 193 16,000  Level Memphis Center
Mon 03:29:19 PM 34.6142 -93.8039 351° North 170 196 16,000  Level Memphis Center
Mon 03:30:21 PM 34.6700 -93.8167 349° North 170 196 16,000  Level Memphis Center
Mon 03:31:23 PM 34.7186 -93.8267 350° North 173 199 16,000  Level Memphis Center
Mon 03:32:25 PM 34.7647 -93.8342 352° North 171 197 16,000  Level Memphis Center
Mon 03:33:27 PM 34.8117 -93.8419 352° North 170 196 16,000  Level Memphis Center
Mon 03:34:29 PM 34.8589 -93.8519 350° North 171 197 16,000 -97 Level Memphis Center
Mon 03:35:31 PM 34.9056 -93.8606 351° North 171 197 15,800 -435 Descending Memphis Center
Mon 03:36:33 PM 34.9675 -93.8731 351° North 178 205 15,100 -677 Descending Memphis Center
Mon 03:37:35 PM 35.0225 -93.8856 349° North 189 217 14,400 -629 Descending Memphis Center
Mon 03:38:37 PM 35.0786 -93.8947 352° North 197 227 13,800 -532 Descending Memphis Center
Mon 03:39:39 PM 35.1314 -93.9044 351° North 195 224 13,300 -532 Descending Memphis Center
Mon 03:40:41 PM 35.1844 -93.9150 351° North 194 223 12,700 -532 Descending Memphis Center
Mon 03:41:43 PM 35.2386 -93.9247 352° North 196 226 12,200 -629 Descending Memphis Center
Mon 03:42:45 PM 35.3025 -93.9389 350° North 195 224 11,400 -726 Descending Memphis Center
Mon 03:43:47 PM 35.3575 -93.9522 349° North 199 229 10,700 -581 Descending Memphis Center
Mon 03:44:49 PM 35.4133 -93.9653 349° North 202 232 10,200 -532 Descending Memphis Center
Mon 03:45:51 PM 35.4689 -93.9750 352° North 202 232 9,600 -532 Descending Memphis Center
Mon 03:46:53 PM 35.5231 -93.9900 347° North 200 230 9,100 -484 Descending Memphis Center
Mon 03:47:55 PM 35.5750 -94.0072 345° North 196 226 8,600 -484 Descending Memphis Center
Mon 03:48:57 PM 35.6375 -94.0306 343° North 195 224 8,100 -532 Descending Memphis Center
Mon 03:49:59 PM 35.6814 -94.0467 343° North 188 216 7,500 -624 Descending Memphis Center
Mon 03:51:02 PM 35.7292 -94.0617 346° North 181 208 6,800 -672 Descending Memphis Center
Mon 03:52:04 PM 35.7733 -94.0761 345° North 170 196 6,100 -774 Descending Memphis Center
Mon 03:53:06 PM 35.8244 -94.0939 344° North 163 188 5,200 -581 Descending Memphis Center
Mon 03:54:08 PM 35.8653 -94.1078 345° North 156 180 4,900 -194 Descending Memphis Center
Mon 03:55:10 PM 35.9031 -94.1200 345° North 146 168 4,800 -435 Descending Memphis Center
Mon 03:56:12 PM 35.9406 -94.1361 341° North 143 165 4,000 -435 Descending Memphis Center
Mon 03:57:14 PM 35.9803 -94.1500 344° North 145 167 3,900 -339 Descending Memphis Center
Mon 03:58:16 PM 36.0192 -94.1450 North 141 162 3,300 -480 Descending Memphis Center
Mon 03:59:19 PM 36.0658 -94.1364 North 141 162 2,900 -192 Descending Memphis Center
Mon 04:00:21 PM 36.1061 -94.1292 North 140 161 2,900  Level Memphis Center
Mon 04:02:00 PM 36.1667 -94.1167 North  Level FlightAware Approximate
Mon 04:09:00 PM 36.1764 -94.1192 North  Level Estimated
Mon 04:10:00 PM 36.1764 -94.1192 North  Level Estimated

Login

Don't have an account? Register now (free) for customized features, flight alerts, and more!